createdAt,value
2018-03-29T00:01:14.520Z,8.80
2018-03-29T00:03:42.003Z,8.70
2018-03-29T00:06:09.564Z,8.70
2018-03-29T00:08:37.112Z,8.70
2018-03-29T00:11:05.389Z,8.70
2018-03-29T00:13:33.665Z,8.70
2018-03-29T00:16:01.154Z,8.60
2018-03-29T00:18:28.646Z,8.70
2018-03-29T00:20:56.138Z,8.60
2018-03-29T00:23:23.684Z,8.60
2018-03-29T00:25:51.250Z,8.60
2018-03-29T00:28:18.745Z,8.60
2018-03-29T00:30:46.245Z,8.60
2018-03-29T00:33:14.483Z,8.60
2018-03-29T00:35:41.967Z,8.50
2018-03-29T00:38:09.467Z,8.50
2018-03-29T00:40:36.982Z,8.50
2018-03-29T00:43:05.277Z,8.60
2018-03-29T00:45:33.533Z,8.50
2018-03-29T00:48:01.787Z,8.40
2018-03-29T00:50:29.271Z,8.40
2018-03-29T00:52:57.556Z,8.40
2018-03-29T00:55:25.802Z,8.40
2018-03-29T00:57:53.294Z,8.40
2018-03-29T01:00:20.782Z,8.40
2018-03-29T01:02:48.290Z,8.30
2018-03-29T01:05:16.552Z,8.30
2018-03-29T01:07:44.128Z,8.30
2018-03-29T01:10:12.405Z,8.20
2018-03-29T01:12:40.686Z,8.20
2018-03-29T01:15:08.178Z,8.10
2018-03-29T01:17:35.651Z,8.10
2018-03-29T01:20:03.157Z,8.10
2018-03-29T01:22:30.639Z,8.00
2018-03-29T01:24:58.165Z,7.90
2018-03-29T01:27:25.643Z,7.90
2018-03-29T01:29:53.137Z,7.90
2018-03-29T01:32:32.717Z,7.80
2018-03-29T01:35:00.975Z,7.80
2018-03-29T01:37:29.245Z,7.80
2018-03-29T01:39:56.731Z,7.70
2018-03-29T01:42:24.314Z,7.80
2018-03-29T01:44:51.793Z,7.80
2018-03-29T01:47:19.310Z,7.70
2018-03-29T01:49:46.802Z,7.60
2018-03-29T01:52:14.290Z,7.70
2018-03-29T01:54:42.552Z,7.70
2018-03-29T01:57:10.160Z,7.70
2018-03-29T01:59:37.677Z,7.70
2018-03-29T02:02:05.936Z,7.70
2018-03-29T02:04:33.572Z,7.70
2018-03-29T02:07:01.230Z,7.70
2018-03-29T02:09:28.720Z,7.70
2018-03-29T02:11:56.309Z,7.40
2018-03-29T02:14:23.796Z,7.30
2018-03-29T02:16:51.315Z,7.10
2018-03-29T02:19:19.573Z,7.10
2018-03-29T02:21:47.874Z,7.20
2018-03-29T02:24:15.359Z,7.10
2018-03-29T02:26:42.846Z,7.20
2018-03-29T02:29:10.349Z,7.10
2018-03-29T02:31:37.848Z,7.00
2018-03-29T02:34:05.585Z,7.00
2018-03-29T02:36:33.091Z,7.00
2018-03-29T02:39:01.437Z,6.90
2018-03-29T02:41:29.742Z,6.90
2018-03-29T02:43:58.031Z,7.00
2018-03-29T02:46:26.337Z,7.00
2018-03-29T02:48:53.833Z,6.90
2018-03-29T02:51:21.361Z,6.90
2018-03-29T02:53:48.835Z,6.80
2018-03-29T02:56:16.337Z,6.80
2018-03-29T02:58:44.591Z,6.60
2018-03-29T03:01:12.839Z,6.70
2018-03-29T03:03:40.348Z,6.60
2018-03-29T03:06:07.841Z,6.60
2018-03-29T03:08:35.336Z,6.60
2018-03-29T03:11:02.837Z,6.70
2018-03-29T03:13:30.356Z,6.70
2018-03-29T03:15:58.650Z,6.70
2018-03-29T03:18:26.133Z,6.60
2018-03-29T03:20:53.642Z,6.80
2018-03-29T03:23:21.898Z,6.70
2018-03-29T03:25:49.414Z,6.60
2018-03-29T03:28:16.971Z,6.70
2018-03-29T03:30:44.474Z,6.70
2018-03-29T03:33:12.064Z,6.60
2018-03-29T03:35:40.313Z,6.70
2018-03-29T03:38:07.802Z,6.60
2018-03-29T03:40:35.350Z,6.80
2018-03-29T03:43:03.616Z,6.90
2018-03-29T03:45:31.871Z,6.90
2018-03-29T03:47:59.392Z,6.90
2018-03-29T03:50:26.863Z,6.80
2018-03-29T03:52:54.337Z,7.00
2018-03-29T03:55:21.845Z,7.10
2018-03-29T03:57:49.427Z,6.90
2018-03-29T04:00:16.904Z,6.90
2018-03-29T04:02:44.417Z,6.90
2018-03-29T04:05:11.922Z,6.90
2018-03-29T04:07:40.250Z,6.60
2018-03-29T04:10:07.744Z,6.60
2018-03-29T04:12:35.239Z,6.60
2018-03-29T04:15:02.756Z,6.70
2018-03-29T04:17:30.239Z,6.60
2018-03-29T04:19:58.557Z,6.60
2018-03-29T04:22:26.923Z,6.70
2018-03-29T04:24:54.413Z,6.70
2018-03-29T04:27:21.903Z,6.70
2018-03-29T04:29:50.167Z,6.70
2018-03-29T04:32:17.663Z,6.60
2018-03-29T04:34:45.200Z,6.60
2018-03-29T04:37:13.465Z,6.40
2018-03-29T04:39:41.752Z,6.40
2018-03-29T04:42:09.992Z,6.50
2018-03-29T04:44:37.476Z,6.40
2018-03-29T04:47:05.755Z,6.40
2018-03-29T04:49:34.028Z,6.30
2018-03-29T04:52:02.459Z,6.40
2018-03-29T04:54:29.936Z,6.40
2018-03-29T04:56:57.433Z,6.40
2018-03-29T04:59:24.924Z,6.50
2018-03-29T05:01:52.433Z,6.40
2018-03-29T05:04:20.695Z,6.20
2018-03-29T05:06:48.977Z,6.40
2018-03-29T05:09:17.253Z,6.30
2018-03-29T05:11:45.524Z,6.30
2018-03-29T05:14:13.913Z,6.20
2018-03-29T05:16:42.177Z,6.10
2018-03-29T05:19:10.432Z,6.20
2018-03-29T05:21:38.025Z,6.10
2018-03-29T05:24:05.601Z,6.10
2018-03-29T05:26:38.935Z,6.10
2018-03-29T05:29:06.469Z,6.30
2018-03-29T05:31:33.961Z,6.30
2018-03-29T05:34:01.452Z,6.30
2018-03-29T05:36:28.951Z,6.40
2018-03-29T05:38:56.442Z,6.30
2018-03-29T05:41:24.718Z,6.10
2018-03-29T05:43:53.000Z,6.10
2018-03-29T05:46:20.505Z,6.00
2018-03-29T05:48:48.122Z,6.20
2018-03-29T05:51:16.408Z,6.20
2018-03-29T05:53:43.952Z,6.20
2018-03-29T05:56:12.233Z,6.30
2018-03-29T05:58:39.745Z,6.30
2018-03-29T06:01:07.349Z,6.30
2018-03-29T06:03:34.832Z,6.40
2018-03-29T06:06:02.347Z,6.40
2018-03-29T06:08:30.704Z,6.30
2018-03-29T06:10:58.200Z,6.30
2018-03-29T06:13:25.739Z,6.20
2018-03-29T06:15:59.773Z,6.40
2018-03-29T06:18:32.340Z,6.40
2018-03-29T06:21:00.091Z,6.50
2018-03-29T06:23:28.356Z,6.80
2018-03-29T06:25:56.631Z,6.90
2018-03-29T06:28:24.896Z,6.90
2018-03-29T06:30:52.374Z,6.80
2018-03-29T06:33:20.748Z,6.90
2018-03-29T06:35:49.023Z,6.90
2018-03-29T06:38:17.283Z,6.60
2018-03-29T06:40:45.608Z,6.50
2018-03-29T06:43:13.102Z,6.40
2018-03-29T06:45:40.689Z,6.70
2018-03-29T06:48:09.001Z,6.70
2018-03-29T06:50:36.525Z,6.70
2018-03-29T06:53:04.071Z,6.70
2018-03-29T06:55:32.347Z,6.80
2018-03-29T06:58:00.652Z,6.90
2018-03-29T07:00:28.122Z,6.80
2018-03-29T07:02:55.636Z,6.90
2018-03-29T07:05:24.604Z,7.10
2018-03-29T07:07:52.101Z,7.10
2018-03-29T07:10:19.602Z,7.20
2018-03-29T07:12:47.093Z,7.10
2018-03-29T07:15:15.376Z,6.90
2018-03-29T07:17:43.615Z,6.90
2018-03-29T07:20:11.218Z,6.90
2018-03-29T07:22:38.715Z,7.00
2018-03-29T07:25:06.208Z,6.90
2018-03-29T07:27:34.458Z,7.10
2018-03-29T07:30:01.965Z,7.10
2018-03-29T07:32:29.449Z,7.20
2018-03-29T07:35:06.987Z,7.10
2018-03-29T07:37:35.710Z,6.90
2018-03-29T07:40:03.201Z,6.80
2018-03-29T07:42:30.698Z,7.00
2018-03-29T07:44:58.944Z,7.00
2018-03-29T07:47:26.534Z,6.90
2018-03-29T07:49:54.023Z,6.80
2018-03-29T07:52:21.647Z,6.90
2018-03-29T07:54:49.179Z,7.00
2018-03-29T07:57:16.709Z,7.20
2018-03-29T07:59:44.241Z,7.20
2018-03-29T08:02:11.791Z,7.30
2018-03-29T08:04:39.342Z,7.50
2018-03-29T08:07:06.828Z,7.80
2018-03-29T08:09:34.329Z,7.90
2018-03-29T08:12:02.601Z,7.90
2018-03-29T08:14:30.101Z,7.80
2018-03-29T08:16:57.627Z,7.70
2018-03-29T08:19:25.901Z,7.80
2018-03-29T08:21:54.173Z,8.10
2018-03-29T08:24:22.417Z,8.20
2018-03-29T08:26:49.907Z,8.10
2018-03-29T08:29:18.195Z,8.10
2018-03-29T08:31:45.739Z,8.10
2018-03-29T08:34:13.987Z,8.00
2018-03-29T08:36:41.511Z,8.00
2018-03-29T08:39:09.006Z,7.90
2018-03-29T08:41:36.493Z,7.80
2018-03-29T08:44:04.751Z,8.00
2018-03-29T08:46:33.000Z,8.00
2018-03-29T08:49:00.499Z,7.90
2018-03-29T08:51:28.062Z,7.90
2018-03-29T08:53:55.622Z,7.90
2018-03-29T08:56:23.121Z,8.10
2018-03-29T08:58:50.795Z,8.00
2018-03-29T09:01:18.303Z,7.90
2018-03-29T09:03:45.866Z,8.10
2018-03-29T09:06:13.385Z,8.40
2018-03-29T09:08:41.649Z,8.60
2018-03-29T09:11:09.132Z,8.60
2018-03-29T09:13:37.505Z,8.70
2018-03-29T09:16:05.765Z,8.80
2018-03-29T09:18:34.059Z,8.80
2018-03-29T09:21:02.328Z,8.90
2018-03-29T09:23:30.591Z,9.00
2018-03-29T09:25:59.007Z,8.90
2018-03-29T09:28:26.487Z,8.80
2018-03-29T09:30:53.966Z,9.00
2018-03-29T09:33:21.574Z,9.10
2018-03-29T09:35:49.114Z,9.10
2018-03-29T09:38:16.677Z,9.30
2018-03-29T09:40:44.228Z,9.40
2018-03-29T09:43:12.596Z,9.40
2018-03-29T09:45:40.878Z,9.50
2018-03-29T09:48:08.433Z,9.50
2018-03-29T09:50:36.724Z,9.50
2018-03-29T09:53:04.200Z,9.40
2018-03-29T09:55:31.694Z,9.40
2018-03-29T09:57:59.186Z,9.40
2018-03-29T10:00:32.316Z,9.00
2018-03-29T10:02:59.822Z,9.10
2018-03-29T10:05:33.848Z,9.10
2018-03-29T10:08:01.340Z,9.10
2018-03-29T10:10:28.828Z,9.40
2018-03-29T10:12:57.130Z,9.40
2018-03-29T10:15:24.633Z,9.40
2018-03-29T10:17:52.128Z,9.60
2018-03-29T10:20:20.380Z,9.80
2018-03-29T10:22:47.866Z,9.80
2018-03-29T10:25:16.120Z,9.90
2018-03-29T10:27:43.691Z,9.80
2018-03-29T10:30:12.017Z,9.70
2018-03-29T10:32:40.217Z,9.80
2018-03-29T10:35:07.742Z,9.70
2018-03-29T10:37:35.232Z,9.90
2018-03-29T10:40:02.824Z,9.90
2018-03-29T10:42:30.359Z,10.00
2018-03-29T10:44:58.647Z,9.90
2018-03-29T10:47:27.046Z,10.30
2018-03-29T10:49:54.536Z,10.20
2018-03-29T10:52:22.035Z,10.60
2018-03-29T10:54:50.293Z,10.60
2018-03-29T10:57:17.792Z,10.60
2018-03-29T10:59:45.273Z,10.90
2018-03-29T11:02:12.772Z,11.10
2018-03-29T11:04:41.065Z,11.00
2018-03-29T11:07:08.548Z,11.00
2018-03-29T11:09:36.064Z,11.50
2018-03-29T11:12:04.357Z,10.90
2018-03-29T11:14:31.915Z,10.90
2018-03-29T11:16:59.407Z,11.10
2018-03-29T11:19:26.898Z,10.80
2018-03-29T11:21:54.403Z,10.70
2018-03-29T11:24:21.923Z,10.90
2018-03-29T11:26:50.191Z,11.20
2018-03-29T11:29:18.441Z,11.20
2018-03-29T11:31:46.122Z,11.10
2018-03-29T11:34:14.385Z,11.20
2018-03-29T11:36:41.909Z,11.10
2018-03-29T11:39:09.393Z,11.40
2018-03-29T11:41:36.882Z,11.50
2018-03-29T11:44:05.169Z,12.00
2018-03-29T11:46:32.724Z,11.90
2018-03-29T11:49:00.244Z,11.80
2018-03-29T11:51:28.571Z,12.00
2018-03-29T11:53:56.063Z,12.00
2018-03-29T11:56:23.577Z,12.20
2018-03-29T11:58:51.083Z,12.20
2018-03-29T12:01:18.576Z,12.30
2018-03-29T12:03:46.090Z,12.20
2018-03-29T12:06:13.582Z,12.20
2018-03-29T12:08:41.848Z,12.10
2018-03-29T12:11:10.138Z,12.50
2018-03-29T12:13:37.698Z,12.40
2018-03-29T12:16:05.255Z,13.20
2018-03-29T12:18:32.751Z,14.00
2018-03-29T12:21:00.245Z,14.20
2018-03-29T12:23:27.742Z,14.60
2018-03-29T12:25:55.229Z,14.30
2018-03-29T12:28:22.849Z,13.60
2018-03-29T12:30:50.391Z,14.20
2018-03-29T12:33:18.651Z,14.30
2018-03-29T12:35:47.826Z,14.00
2018-03-29T12:38:15.354Z,13.90
2018-03-29T12:40:42.864Z,14.00
2018-03-29T12:43:11.122Z,13.80
2018-03-29T12:45:38.632Z,13.70
2018-03-29T12:48:06.165Z,14.00
2018-03-29T12:50:34.430Z,13.60
2018-03-29T12:53:02.671Z,13.60
2018-03-29T12:55:43.291Z,13.60
2018-03-29T12:58:13.499Z,13.60
2018-03-29T13:00:41.760Z,13.50
2018-03-29T13:03:10.043Z,13.40
2018-03-29T13:05:38.302Z,13.70
2018-03-29T13:08:05.892Z,13.60
2018-03-29T13:10:33.449Z,13.60
2018-03-29T13:13:00.927Z,13.50
2018-03-29T13:15:28.460Z,13.60
2018-03-29T13:17:56.704Z,13.80
2018-03-29T13:20:24.193Z,13.80
2018-03-29T13:22:51.745Z,13.70
2018-03-29T13:25:19.237Z,13.00
2018-03-29T13:27:46.865Z,12.50
2018-03-29T13:30:14.417Z,12.30
2018-03-29T13:32:41.975Z,12.10
2018-03-29T13:35:09.550Z,12.00
2018-03-29T13:37:37.044Z,11.90
2018-03-29T13:40:04.521Z,11.50
2018-03-29T13:42:32.097Z,11.50
2018-03-29T13:45:00.369Z,11.60
2018-03-29T13:47:28.636Z,11.60
2018-03-29T13:49:56.908Z,11.60
2018-03-29T13:52:25.160Z,11.60
2018-03-29T13:54:52.656Z,11.60
2018-03-29T13:57:20.951Z,11.50
2018-03-29T13:59:48.453Z,11.40
2018-03-29T14:02:15.953Z,11.50
2018-03-29T14:04:43.433Z,11.40
2018-03-29T14:07:10.927Z,11.30
2018-03-29T14:09:38.512Z,11.30
2018-03-29T14:12:06.030Z,11.30
2018-03-29T14:14:33.520Z,11.40
2018-03-29T14:17:01.778Z,11.40
2018-03-29T14:19:30.061Z,11.70
2018-03-29T14:21:58.342Z,11.80
2018-03-29T14:24:26.623Z,12.00
2018-03-29T14:26:54.204Z,11.90
2018-03-29T14:29:21.707Z,12.30
2018-03-29T14:31:49.208Z,12.40
2018-03-29T14:34:16.682Z,12.90
2018-03-29T14:36:44.187Z,12.90
2018-03-29T14:39:12.490Z,12.70
2018-03-29T14:41:40.003Z,12.60
2018-03-29T14:44:07.517Z,12.70
2018-03-29T14:46:44.963Z,12.80
2018-03-29T14:49:13.234Z,12.20
2018-03-29T14:51:40.828Z,12.20
2018-03-29T14:54:08.323Z,11.70
2018-03-29T14:56:35.805Z,11.40
2018-03-29T14:59:03.310Z,11.00
2018-03-29T15:01:30.792Z,10.80
2018-03-29T15:03:58.307Z,10.50
2018-03-29T15:06:25.855Z,10.50
2018-03-29T15:08:54.104Z,10.30
2018-03-29T15:11:21.617Z,10.30
2018-03-29T15:13:49.213Z,10.40
2018-03-29T15:16:16.664Z,10.40
2018-03-29T15:18:44.155Z,10.40
2018-03-29T15:21:13.371Z,10.40
2018-03-29T15:23:40.938Z,10.30
2018-03-29T15:26:08.463Z,10.40
2018-03-29T15:28:36.737Z,10.60
2018-03-29T15:31:05.011Z,10.70
2018-03-29T15:33:33.272Z,10.60
2018-03-29T15:36:00.852Z,10.60
2018-03-29T15:38:29.121Z,10.70
2018-03-29T15:40:56.645Z,10.60
2018-03-29T15:43:24.247Z,10.60
2018-03-29T15:45:52.502Z,10.20
2018-03-29T15:48:20.776Z,9.70
2018-03-29T15:50:49.075Z,9.30
2018-03-29T15:53:17.313Z,9.10
2018-03-29T15:55:44.810Z,9.00
2018-03-29T15:58:12.357Z,9.20
2018-03-29T16:00:40.645Z,9.00
2018-03-29T16:03:08.135Z,9.00
2018-03-29T16:05:35.627Z,9.00
2018-03-29T16:08:03.910Z,8.60
2018-03-29T16:10:32.150Z,8.50
2018-03-29T16:12:59.671Z,8.50
2018-03-29T16:15:27.234Z,8.60
2018-03-29T16:17:54.767Z,8.70
2018-03-29T16:20:23.142Z,8.70
2018-03-29T16:22:51.515Z,8.80
2018-03-29T16:25:19.795Z,8.80
2018-03-29T16:27:48.058Z,8.80
2018-03-29T16:30:16.320Z,8.90
2018-03-29T16:32:43.864Z,8.80
2018-03-29T16:35:11.454Z,8.80
2018-03-29T16:37:39.715Z,8.80
2018-03-29T16:40:08.113Z,8.70
2018-03-29T16:42:35.596Z,8.70
2018-03-29T16:45:03.083Z,8.60
2018-03-29T16:47:30.600Z,8.50
2018-03-29T16:49:58.102Z,8.50
2018-03-29T16:52:25.580Z,8.40
2018-03-29T16:54:53.889Z,8.50
2018-03-29T16:57:21.381Z,8.50
2018-03-29T16:59:48.864Z,8.60
2018-03-29T17:02:17.140Z,8.60
2018-03-29T17:04:45.391Z,8.60
2018-03-29T17:07:12.884Z,8.50
2018-03-29T17:09:41.136Z,8.50
2018-03-29T17:12:08.621Z,8.40
2018-03-29T17:14:36.120Z,8.50
2018-03-29T17:17:03.609Z,8.40
2018-03-29T17:19:31.934Z,8.30
2018-03-29T17:21:59.466Z,8.20
2018-03-29T17:24:26.974Z,8.30
2018-03-29T17:26:54.473Z,8.20
2018-03-29T17:29:22.743Z,8.20
2018-03-29T17:31:51.104Z,8.20
2018-03-29T17:34:18.663Z,8.20
2018-03-29T17:36:46.962Z,8.10
2018-03-29T17:39:14.444Z,8.10
2018-03-29T17:41:41.967Z,8.10
2018-03-29T17:44:09.496Z,8.00
2018-03-29T17:46:37.097Z,8.10
2018-03-29T17:49:04.593Z,8.00
2018-03-29T17:51:32.097Z,7.90
2018-03-29T17:54:00.378Z,7.90
2018-03-29T17:56:27.931Z,7.80
2018-03-29T17:58:55.445Z,7.80
2018-03-29T18:01:22.942Z,7.70
2018-03-29T18:03:51.192Z,7.80
2018-03-29T18:06:18.714Z,7.80
2018-03-29T18:08:46.232Z,8.40
2018-03-29T18:11:14.471Z,7.90
2018-03-29T18:13:42.078Z,7.90
2018-03-29T18:16:09.550Z,7.80
2018-03-29T18:18:37.046Z,7.70
2018-03-29T18:21:04.540Z,7.60
2018-03-29T18:23:32.063Z,7.60
2018-03-29T18:26:00.363Z,7.50
2018-03-29T18:28:28.603Z,7.40
2018-03-29T18:30:56.101Z,7.40
2018-03-29T18:33:23.591Z,7.50
2018-03-29T18:35:51.094Z,7.50
2018-03-29T18:38:19.388Z,7.50
2018-03-29T18:40:47.668Z,7.40
2018-03-29T18:43:15.231Z,7.40
2018-03-29T18:45:42.711Z,7.40
2018-03-29T18:48:10.215Z,7.30
2018-03-29T18:50:38.502Z,7.30
2018-03-29T18:53:06.775Z,7.30
2018-03-29T18:55:35.079Z,7.40
2018-03-29T18:58:02.594Z,7.30
2018-03-29T19:00:30.865Z,7.40
2018-03-29T19:02:58.360Z,7.30
2018-03-29T19:05:25.917Z,7.40
2018-03-29T19:07:53.402Z,7.40
2018-03-29T19:10:21.024Z,7.40
2018-03-29T19:12:48.517Z,7.40
2018-03-29T19:15:16.013Z,7.30
2018-03-29T19:17:44.277Z,7.30
2018-03-29T19:20:11.880Z,7.20
2018-03-29T19:22:39.392Z,7.30
2018-03-29T19:25:06.893Z,7.30
2018-03-29T19:27:44.325Z,7.30
2018-03-29T19:30:11.805Z,7.30
2018-03-29T19:32:40.071Z,7.10
2018-03-29T19:35:07.584Z,7.00
2018-03-29T19:37:35.121Z,7.10
2018-03-29T19:40:02.612Z,7.10
2018-03-29T19:42:30.138Z,7.20
2018-03-29T19:44:58.389Z,7.10
2018-03-29T19:47:26.673Z,6.90
2018-03-29T19:49:54.232Z,6.90
2018-03-29T19:52:21.733Z,7.00
2018-03-29T19:54:49.219Z,7.00
2018-03-29T19:57:16.711Z,7.00
2018-03-29T19:59:44.270Z,6.90
2018-03-29T20:02:11.768Z,6.90
2018-03-29T20:04:39.262Z,6.70
2018-03-29T20:07:07.533Z,6.70
2018-03-29T20:09:35.809Z,6.60
2018-03-29T20:12:03.400Z,6.60
2018-03-29T20:14:30.892Z,6.60
2018-03-29T20:16:58.379Z,6.50
2018-03-29T20:19:26.624Z,6.50
2018-03-29T20:21:54.132Z,6.40
2018-03-29T20:24:21.612Z,6.50
2018-03-29T20:26:49.121Z,6.40
2018-03-29T20:29:17.771Z,6.20
2018-03-29T20:31:45.248Z,6.20
2018-03-29T20:34:12.751Z,6.30
2018-03-29T20:36:40.247Z,6.20
2018-03-29T20:39:07.733Z,6.20
2018-03-29T20:41:36.003Z,6.30
2018-03-29T20:44:04.262Z,6.20
2018-03-29T20:46:31.767Z,6.10
2018-03-29T20:48:59.251Z,6.00
2018-03-29T20:51:26.737Z,6.00
2018-03-29T20:53:54.217Z,6.00
2018-03-29T20:56:21.736Z,6.10
2018-03-29T20:58:49.353Z,6.00
2018-03-29T21:01:16.898Z,5.90
2018-03-29T21:03:44.380Z,5.80
2018-03-29T21:06:11.871Z,5.80
2018-03-29T21:08:39.452Z,5.80
2018-03-29T21:11:07.705Z,5.80
2018-03-29T21:13:35.283Z,5.70
2018-03-29T21:16:03.548Z,5.80
2018-03-29T21:18:31.807Z,5.70
2018-03-29T21:21:00.068Z,5.80
2018-03-29T21:23:27.710Z,5.70
2018-03-29T21:25:55.223Z,5.70
2018-03-29T21:28:23.483Z,5.60
2018-03-29T21:30:51.070Z,5.60
2018-03-29T21:33:18.617Z,5.50
2018-03-29T21:35:46.878Z,5.40
2018-03-29T21:38:15.128Z,5.40
2018-03-29T21:40:42.634Z,5.30
2018-03-29T21:43:10.122Z,5.40
2018-03-29T21:45:37.609Z,5.30
2018-03-29T21:48:05.097Z,5.30
2018-03-29T21:50:33.391Z,5.20
2018-03-29T21:53:00.870Z,5.10
2018-03-29T21:55:28.379Z,5.20
2018-03-29T21:57:56.708Z,5.00
2018-03-29T22:00:24.209Z,4.90
2018-03-29T22:02:52.463Z,4.90
2018-03-29T22:05:19.958Z,4.80
2018-03-29T22:07:47.465Z,4.90
2018-03-29T22:10:14.956Z,4.90
2018-03-29T22:12:43.222Z,6.00
2018-03-29T22:15:11.485Z,5.50
2018-03-29T22:17:38.971Z,5.50
2018-03-29T22:20:06.520Z,5.30
2018-03-29T22:22:34.781Z,4.90
2018-03-29T22:25:03.055Z,4.70
2018-03-29T22:27:31.353Z,4.70
2018-03-29T22:29:58.864Z,4.70
2018-03-29T22:32:26.362Z,4.70
2018-03-29T22:34:54.595Z,4.70
2018-03-29T22:37:22.164Z,4.60
2018-03-29T22:39:49.650Z,4.60
2018-03-29T22:42:17.145Z,4.70
2018-03-29T22:44:44.629Z,4.60
2018-03-29T22:47:12.221Z,4.60
2018-03-29T22:49:39.809Z,4.50
2018-03-29T22:52:07.294Z,4.40
2018-03-29T22:54:34.792Z,4.40
2018-03-29T22:57:02.294Z,4.40
2018-03-29T22:59:29.789Z,4.30
2018-03-29T23:01:58.072Z,4.30
2018-03-29T23:04:26.342Z,4.10
2018-03-29T23:06:54.610Z,4.10
2018-03-29T23:09:22.883Z,4.00
2018-03-29T23:11:51.178Z,4.10
2018-03-29T23:14:18.685Z,4.00
2018-03-29T23:16:46.205Z,4.00
2018-03-29T23:19:13.684Z,4.00
2018-03-29T23:21:42.031Z,4.00
2018-03-29T23:24:09.581Z,3.90
2018-03-29T23:26:37.138Z,3.70
2018-03-29T23:29:05.414Z,3.70
2018-03-29T23:31:32.919Z,3.70
2018-03-29T23:34:00.528Z,3.80
2018-03-29T23:36:28.084Z,3.70
2018-03-29T23:38:56.372Z,3.80
2018-03-29T23:41:23.857Z,3.70
2018-03-29T23:43:51.353Z,3.70
2018-03-29T23:46:19.639Z,3.70
2018-03-29T23:48:47.901Z,3.60
2018-03-29T23:51:15.489Z,3.50
2018-03-29T23:53:42.993Z,3.50
2018-03-29T23:56:11.273Z,3.40
2018-03-29T23:58:38.768Z,3.30
